Thunder radar more information blitzortung!


Radar de pluja more information rain snow radar


Visita la nostra xarxa de llocs de meteo:

Template documentation
and downloads

And another site



No particular awareness of the weather is required.    There are no Weather-warnings

Pagina Historial Weather Underground text

Diari Resum January 1, 2016 Unitats:  Mètric    Imperial   Tant
« Previous Dia
SegĂźent Dia »
Diari Setmana Mensual Anual Personalitzada
  Maxima: Minima: Media:
Temperatura: -17.8 °C -13.1 °C -11.3 °C
Punt de rosada: -17.8 °C -15.5 °C -13.2 °C
Humitat: Humidity % 73 % 79 %
Wind Speed: 0 km/h 0 km/h 6.4 km/h
RĂ fegues de vent: 0 km/h - -
Vent:- - SSW
Pression baro: 0 hPa 34496.6 hPa -
Precipitacions: 0 mm    
Historical Graphs
 
 
Dades de taula per January 1, 2016
Temps Temperatura Punt de rosada Pression baro Vent Wind Speed RĂ fegues de vent Humitat Rainfall Rate (Hourly)
-17.8 °C -17.8 °C 0 hPa Calm     Humidity % 0 mm
00:02 -12.6 °C -15.1 °C 34774.2 hPa Calm     73 % 0 mm
00:07 -12.7 °C -15.2 °C 34774.2 hPa NE 6 km/h 6 km/h 73 % 0 mm
00:12 -12.7 °C -15.2 °C 34740.4 hPa NE 3.7 km/h   74 % 0 mm
00:17 -12.8 °C -15.3 °C 34740.4 hPa NE 8 km/h 8 km/h 74 % 0 mm
00:22 -12.9 °C -15.4 °C 34740.4 hPa ENE 9 km/h 9 km/h 74 % 0 mm
00:27 -13.1 °C -15.5 °C 34774.2 hPa Calm     74 % 0 mm
00:32 -13.1 °C -15.5 °C 34774.2 hPa ENE 3.1 km/h   74 % 0 mm
00:37 -13.1 °C -15.5 °C 34774.2 hPa ENE 3.1 km/h   74 % 0 mm
11:57 -12.3 °C -14.3 °C 34740.4 hPa SSW 6 km/h   79 % 0 mm
12:02 -12.3 °C -14.2 °C 34740.4 hPa SW 3.1 km/h   79 % 0 mm
12:07 -12.1 °C -14.1 °C 34740.4 hPa Calm     79 % 0 mm
12:12 -12.1 °C -14 °C 34703.1 hPa SSW 4.2 km/h 4.2 km/h 79 % 0 mm
12:17 -12 °C -13.9 °C 34703.1 hPa Calm     79 % 0 mm
12:22 -11.9 °C -14 °C 34703.1 hPa SSE 3.1 km/h   78 % 0 mm
12:27 -12 °C -14.1 °C 34703.1 hPa ESE 6 km/h 6.3 km/h 78 % 0 mm
12:32 -11.9 °C -14 °C 34703.1 hPa ENE 3.1 km/h 3.1 km/h 78 % 0 mm
12:37 -11.9 °C -13.9 °C 34703.1 hPa ENE 3.1 km/h   78 % 0 mm
12:42 -11.8 °C -13.8 °C 34703.1 hPa Calm     78 % 0 mm
12:48 -11.7 °C -13.8 °C 34703.1 hPa ENE 3.1 km/h 3.1 km/h 78 % 0 mm
12:53 -11.6 °C -13.7 °C 34703.1 hPa ENE 6 km/h 6 km/h 78 % 0 mm
12:58 -11.6 °C -13.6 °C 34669.3 hPa ENE 6 km/h 6 km/h 78 % 0 mm
13:03 -11.4 °C -13.6 °C 34669.3 hPa NE 6.3 km/h 6.3 km/h 77 % 0 mm
13:08 -11.4 °C -13.6 °C 34669.3 hPa Calm     77 % 0 mm
13:13 -11.3 °C -13.4 °C 34669.3 hPa ENE 3.7 km/h 3.7 km/h 77 % 0 mm
13:23 -11.2 °C -13.4 °C 34669.3 hPa NE 6 km/h   76 % 0 mm
13:28 -11.1 °C -13.3 °C 34669.3 hPa ENE 6.3 km/h 6.3 km/h 76 % 0 mm
13:33 -10.8 °C -13.1 °C 34669.3 hPa East 6 km/h 6 km/h 76 % 0 mm
13:38 -10.8 °C -13.1 °C 34669.3 hPa East 3.7 km/h   76 % 0 mm
13:43 -10.8 °C -13.1 °C 34669.3 hPa SE 3.7 km/h 3.7 km/h 76 % 0 mm
13:48 -10.6 °C -12.9 °C 34669.3 hPa SE 6 km/h 6 km/h 76 % 0 mm
13:53 -10.6 °C -12.7 °C 34669.3 hPa WSW 6 km/h 6 km/h 77 % 0 mm
13:58 -10.4 °C -12.6 °C 34635.4 hPa WSW 9 km/h 9 km/h 77 % 0 mm
14:03 -10.5 °C -12.7 °C 34635.4 hPa SW 9 km/h 9 km/h 77 % 0 mm
14:08 -10.4 °C -12.6 °C 34635.4 hPa Calm     77 % 0 mm
14:13 -10.3 °C -12.6 °C 34635.4 hPa SSW 3.1 km/h   77 % 0 mm
14:18 -10.3 °C -12.4 °C 34635.4 hPa SW 9 km/h 9 km/h 77 % 0 mm
14:23 -10.2 °C -12.6 °C 34635.4 hPa SW 3.1 km/h 3.1 km/h 76 % 0 mm
14:28 -10.1 °C -12.4 °C 34601.5 hPa SW 6 km/h 6 km/h 76 % 0 mm
14:33 -10.1 °C -12.4 °C 34601.5 hPa SSW 6 km/h 6 km/h 76 % 0 mm
14:43 -10.1 °C -12.4 °C 34601.5 hPa WSW 9 km/h 9 km/h 75 % 0 mm
14:48 -10.1 °C -12.4 °C 34601.5 hPa SW 9 km/h 9 km/h 75 % 0 mm
14:58 -10.1 °C -12.6 °C 34601.5 hPa SW 9 km/h 9 km/h 75 % 0 mm
15:03 -10.1 °C -12.7 °C 34601.5 hPa SW 15 km/h 15 km/h 74 % 0 mm
15:08 -10.2 °C -12.7 °C 34601.5 hPa WSW 6 km/h 6 km/h 74 % 0 mm
15:13 -10.1 °C -12.7 °C 34601.5 hPa SW 6 km/h 6 km/h 74 % 0 mm
15:18 -10 °C -12.4 °C 34601.5 hPa SW 6.3 km/h 6.3 km/h 75 % 0 mm
15:23 -10 °C -12.4 °C 34601.5 hPa SW 6.8 km/h 6.8 km/h 75 % 0 mm
15:28 -10 °C -12.6 °C 34601.5 hPa West 15 km/h 15 km/h 74 % 0 mm
15:33 -9.9 °C -12.4 °C 34601.5 hPa SW 10.3 km/h 10.3 km/h 74 % 0 mm
15:38 -9.9 °C -12.4 °C 34601.5 hPa SW 6 km/h 6 km/h 74 % 0 mm
15:43 -9.9 °C -12.4 °C 34601.5 hPa SW 6 km/h 6.3 km/h 74 % 0 mm
15:48 -9.9 °C -12.4 °C 34601.5 hPa WSW 11.9 km/h 11.9 km/h 74 % 0 mm
15:53 -9.9 °C -12.4 °C 34601.5 hPa SW 11.9 km/h 11.9 km/h 74 % 0 mm
15:58 -9.9 °C -12.6 °C 34601.5 hPa SW 9 km/h 9 km/h 73 % 0 mm
16:03 -9.9 °C -12.4 °C 34601.5 hPa SSW 7.6 km/h 7.6 km/h 74 % 0 mm
16:08 -9.9 °C -12.6 °C 34601.5 hPa SW 15 km/h 15 km/h 73 % 0 mm
16:13 -9.9 °C -12.6 °C 34567.7 hPa SW 6 km/h 7.6 km/h 73 % 0 mm
16:18 -9.9 °C -12.6 °C 34567.7 hPa SW 9 km/h 9 km/h 73 % 0 mm
16:23 -9.9 °C -12.6 °C 34567.7 hPa SW 6.3 km/h 6.3 km/h 73 % 0 mm
16:28 -9.9 °C -12.6 °C 34567.7 hPa WSW 9 km/h 9 km/h 73 % 0 mm
16:33 -9.9 °C -12.6 °C 34567.7 hPa SW 11.9 km/h 11.9 km/h 73 % 0 mm
16:38 -10 °C -12.7 °C 34567.7 hPa West 7.6 km/h 7.6 km/h 73 % 0 mm
16:43 -10 °C -12.7 °C 34567.7 hPa SW 11.9 km/h 11.9 km/h 73 % 0 mm
16:48 -10 °C -12.7 °C 34567.7 hPa WSW 9 km/h 9 km/h 73 % 0 mm
16:53 -10.1 °C -12.7 °C 34567.7 hPa WSW 9 km/h 9 km/h 73 % 0 mm
16:58 -10.1 °C -12.7 °C 34567.7 hPa WSW 9 km/h 9 km/h 73 % 0 mm
17:03 -10.1 °C -12.7 °C 34567.7 hPa WSW 6 km/h 6 km/h 74 % 0 mm
17:08 -10.1 °C -12.7 °C 34567.7 hPa SW 6 km/h 6 km/h 74 % 0 mm
17:13 -10.2 °C -12.7 °C 34533.8 hPa SW 9 km/h 9 km/h 74 % 0 mm
17:18 -10.2 °C -12.7 °C 34533.8 hPa SW 9 km/h 9 km/h 74 % 0 mm
17:23 -10.3 °C -12.7 °C 34533.8 hPa SW 11.9 km/h 11.9 km/h 75 % 0 mm
17:28 -10.4 °C -12.7 °C 34533.8 hPa SSW 9 km/h 9 km/h 76 % 0 mm
17:33 -10.5 °C -12.8 °C 34533.8 hPa SW 6 km/h 6.3 km/h 76 % 0 mm
17:38 -10.6 °C -12.7 °C 34533.8 hPa SW 9 km/h 9 km/h 77 % 0 mm
17:43 -10.6 °C -12.8 °C 34533.8 hPa SW 6.8 km/h 8 km/h 77 % 0 mm
17:48 -10.7 °C -12.8 °C 34533.8 hPa SSW 10.3 km/h 10.3 km/h 77 % 0 mm
17:53 -10.7 °C -12.8 °C 34533.8 hPa SW 9 km/h 9 km/h 78 % 0 mm
17:58 -10.8 °C -12.9 °C 34533.8 hPa WSW 11.9 km/h 11.9 km/h 78 % 0 mm
18:03 -10.9 °C -12.9 °C 34533.8 hPa SW 11.9 km/h 11.9 km/h 79 % 0 mm
18:06 -10.9 °C -12.9 °C 34533.8 hPa SW 6 km/h 6.3 km/h 79 % 0 mm
18:07 -10.9 °C -12.9 °C 34533.8 hPa WSW 11.1 km/h 11.1 km/h 79 % 0 mm
18:12 -10.9 °C -12.9 °C 34533.8 hPa WSW 9 km/h 9 km/h 79 % 0 mm
18:17 -11.1 °C -13 °C 34533.8 hPa SW 7.6 km/h 7.6 km/h 79 % 0 mm
18:22 -11.1 °C -12.9 °C 34533.8 hPa SW 9 km/h 9 km/h 80 % 0 mm
18:27 -11.2 °C -13 °C 34496.6 hPa SW 6.8 km/h 6.8 km/h 80 % 0 mm
18:32 -11.2 °C -13 °C 34496.6 hPa SW 5.6 km/h 5.6 km/h 80 % 0 mm
18:37 -11.2 °C -13.1 °C 34496.6 hPa WSW 6.3 km/h 6.3 km/h 80 % 0 mm
18:42 -11.3 °C -13 °C 34496.6 hPa WSW 9 km/h 9 km/h 81 % 0 mm
18:47 -11.3 °C -13.1 °C 34496.6 hPa West 6 km/h 6 km/h 81 % 0 mm
18:52 -11.4 °C -13.2 °C 34496.6 hPa WSW 6 km/h 6 km/h 81 % 0 mm
18:57 -11.4 °C -13.2 °C 34533.8 hPa SW 5.1 km/h 5.1 km/h 81 % 0 mm
19:02 -11.4 °C -13.2 °C 34533.8 hPa WSW 4.2 km/h 4.2 km/h 81 % 0 mm
19:07 -11.5 °C -13.2 °C 34533.8 hPa West 6 km/h 6 km/h 81 % 0 mm
19:12 -11.6 °C -13.3 °C 34496.6 hPa SW 6.3 km/h 6.3 km/h 81 % 0 mm
19:17 -11.6 °C -13.2 °C 34496.6 hPa WSW 6 km/h 6 km/h 82 % 0 mm
19:22 -11.6 °C -13.2 °C 34496.6 hPa SW 3.1 km/h   83 % 0 mm
19:27 -11.6 °C -13.2 °C 34533.8 hPa WSW 3.1 km/h   82 % 0 mm
19:32 -11.7 °C -13.2 °C 34533.8 hPa WSW 3.1 km/h 3.1 km/h 83 % 0 mm
19:37 -11.7 °C -13.2 °C 34533.8 hPa WSW 3.1 km/h   83 % 0 mm
19:42 -11.7 °C -13.2 °C 34533.8 hPa SW 6 km/h 6 km/h 83 % 0 mm
19:47 -11.7 °C -13.3 °C 34533.8 hPa WSW 5.1 km/h 5.1 km/h 83 % 0 mm
19:52 -11.8 °C -13.3 °C 34533.8 hPa SW 3.1 km/h   83 % 0 mm
19:57 -11.8 °C -13.3 °C 34533.8 hPa WSW 6 km/h 6 km/h 83 % 0 mm
20:02 -11.8 °C -13.4 °C 34533.8 hPa WSW 6.3 km/h 6.3 km/h 83 % 0 mm
20:07 -11.8 °C -13.3 °C 34533.8 hPa WSW 9 km/h 9 km/h 84 % 0 mm
20:12 -11.9 °C -13.3 °C 34533.8 hPa SW 6 km/h 6.3 km/h 84 % 0 mm
20:17 -12 °C -13.3 °C 34533.8 hPa SW 9 km/h 9 km/h 85 % 0 mm
20:22 -12 °C -13.3 °C 34533.8 hPa WSW 6 km/h 6 km/h 85 % 0 mm
20:27 -11.9 °C -13.2 °C 34533.8 hPa SW 6 km/h 6.8 km/h 86 % 0 mm
20:32 -11.9 °C -13.2 °C 34533.8 hPa SW 6 km/h 6 km/h 86 % 0 mm
20:37 -11.9 °C -13.2 °C 34533.8 hPa SW 3.1 km/h 4.2 km/h 86 % 0 mm
20:42 -11.9 °C -13.1 °C 34533.8 hPa WSW 6.3 km/h 6.3 km/h 87 % 0 mm
20:47 -11.9 °C -13.1 °C 34533.8 hPa West 8 km/h 8 km/h 87 % 0 mm
20:52 -11.8 °C -13 °C 34533.8 hPa SW 8.5 km/h 8.5 km/h 87 % 0 mm
20:57 -11.8 °C -13 °C 34533.8 hPa SW 6.8 km/h 6.8 km/h 87 % 0 mm
21:02 -11.8 °C -12.9 °C 34533.8 hPa WSW 6.3 km/h 6.3 km/h 87 % 0 mm
21:07 -11.8 °C -12.8 °C 34533.8 hPa WSW 6 km/h 6 km/h 88 % 0 mm
21:12 -11.7 °C -12.8 °C 34533.8 hPa West 3.1 km/h 3.7 km/h 88 % 0 mm
21:17 -11.7 °C -12.8 °C 34533.8 hPa WSW 7.6 km/h 8 km/h 88 % 0 mm
21:22 -11.7 °C -12.7 °C 34533.8 hPa WSW 9 km/h 9 km/h 88 % 0 mm
21:27 -11.7 °C -12.6 °C 34533.8 hPa SW 9 km/h 9 km/h 89 % 0 mm
21:32 -11.7 °C -12.6 °C 34533.8 hPa WSW 6 km/h 6 km/h 89 % 0 mm
21:37 -11.7 °C -12.6 °C 34533.8 hPa WSW 8 km/h 8 km/h 89 % 0 mm
21:42 -11.7 °C -12.7 °C 34533.8 hPa SW 6 km/h 6 km/h 89 % 0 mm
21:47 -11.8 °C -12.7 °C 34533.8 hPa SW 6 km/h 6 km/h 89 % 0 mm
21:52 -11.8 °C -12.8 °C 34533.8 hPa WSW 6 km/h 6 km/h 89 % 0 mm
21:57 -11.9 °C -12.9 °C 34496.6 hPa SW 3.1 km/h 3.7 km/h 88 % 0 mm
22:02 -11.9 °C -13 °C 34496.6 hPa SW 3.1 km/h   88 % 0 mm
22:07 -11.9 °C -13 °C 34496.6 hPa WSW 4.2 km/h 4.2 km/h 88 % 0 mm
22:12 -12 °C -13.1 °C 34496.6 hPa WSW 6 km/h 6 km/h 88 % 0 mm
22:17 -12.1 °C -13.1 °C 34496.6 hPa WSW 6 km/h 6.3 km/h 88 % 0 mm
22:22 -12.1 °C -13.2 °C 34496.6 hPa SW 6.3 km/h 6.3 km/h 88 % 0 mm
22:27 -12.2 °C -13.2 °C 34496.6 hPa SW 9 km/h 9 km/h 88 % 0 mm
22:32 -12.2 °C -13.3 °C 34496.6 hPa SW 3.1 km/h 5.6 km/h 88 % 0 mm
22:37 -12.2 °C -13.3 °C 34496.6 hPa SW 6 km/h 6 km/h 88 % 0 mm
22:42 -12.2 °C -13.3 °C 34496.6 hPa WSW 6.3 km/h 6.3 km/h 88 % 0 mm
22:47 -12.2 °C -13.3 °C 34496.6 hPa WSW 6.3 km/h 6.3 km/h 88 % 0 mm
22:52 -12.2 °C -13.3 °C 34496.6 hPa WSW 6.3 km/h 6.3 km/h 88 % 0 mm
22:57 -12.2 °C -13.3 °C 34496.6 hPa SW 4.2 km/h 6.8 km/h 88 % 0 mm
23:02 -12.2 °C -13.2 °C 34496.6 hPa WSW 11.9 km/h 11.9 km/h 89 % 0 mm
23:07 -12.2 °C -13.1 °C 34496.6 hPa SSW 7.6 km/h 7.6 km/h 89 % 0 mm
23:12 -12.1 °C -13 °C 34496.6 hPa SW 6.8 km/h 6.8 km/h 90 % 0 mm
23:17 -12.1 °C -12.9 °C 34496.6 hPa SW 9 km/h 9 km/h 90 % 0 mm
23:22 -11.9 °C -12.8 °C 34496.6 hPa WSW 9 km/h 9 km/h 90 % 0 mm
Meteo Sesrovires
Elogis d' Weather Underground - 2 mb

Guio original per  Jim McMurry - jmcmurry@mwt.net Adaptat per a la plantilla per  Wim van der Kuil - Leuven-Template.eu

Trobareu la nostra informacio del temps tambe a:

Weather Underground

AWEKAS